Historyczne dane pomiarowe

Dodano dane terminowe – wersja testowa.

Dane z okresu 1951-2019

Wersja bazy: 1.34 [2019-03-16, lista zmian], aktualizacja planowana na 2019-04-15

Dane meteo z obszaru Polski uzyskane na podstawie danych udostępnionych przez Instytut Meteorologii i Gospodarki Wodnej – Państwowy Instytut Badawczy.

 

Wybierz Datę:    

       

TemperaturaWilgotnośćWiatrCiśnienieOpadyŚniegCzas trwania zjawisk
 Stacja t tx tn tng RH VA  wxwx mslp ppp RRR   cm mm wxwxwxwxwxwxwx
1956-11-09 -2.6 2.4 -5.4- 79.8- 2.7 4.3---- 0.0------------
1956-11-08 -0.9 1.2 -3.0- 88.5- 4.7 2.7---- 0.0-- 1---------
1956-11-07 0.8 4.9 -1.4- 81.0- 5.3 7.7---- 5.4------------
1956-11-06 4.2 5.4 0.0- 63.8- 5.3 13.3---- 1.2------------
1956-11-05 5.0 8.1 1.1- 79.0- 6.7 11.3---- 4.0------------
1956-11-04 2.8 5.1 -0.9- 69.5- 6.0 9.0---- 0.0------------
1956-11-03 0.7 3.8 -0.5- 90.8- 6.7 3.0---- 2.3------------
1956-11-02 2.3 6.2 -0.9- 86.5- 5.3 2.3---- 5.0------------
1956-11-01 3.5 4.8 -1.7- 90.3- 8.0 8.7---- 14.3------------
1956-10-31 -2.5 1.7 -9.4- 77.3- 2.0 5.3---- 0.0------------
1956-10-30 -3.6 -1.0 -6.2- 85.0- 5.3 7.7---- 0.0------------
1956-10-29 -0.5 4.9 -2.4- 92.3- 8.0 9.7---- 2.7------------
1956-10-28 6.0 8.1 3.8- 91.3- 8.0 9.0---- 3.3------------
1956-10-27 7.5 8.2 6.0- 92.8- 8.0 8.7---- 7.6------------
1956-10-26 7.8 11.2 6.7- 86.5- 7.7 2.7---- 0.0------------
1956-10-25 12.0 15.6 10.2- 82.8- 5.3 6.7---- 0.0------------
1956-10-24 12.8 14.0 8.0- 85.0- 8.0 7.3---- 0.0------------
1956-10-23 9.9 11.6 8.2- 81.0- 5.7 6.3---- 0.0------------
1956-10-22 11.9 14.2 10.5- 81.8- 6.7 6.0---- 0.0------------
1956-10-21 12.3 14.0 7.8- 90.5- 7.7 5.0---- 0.0------------
1956-10-20 9.8 11.3 6.6- 92.3- 5.7 5.3---- 2.8------------
1956-10-19 10.0 13.2 7.5- 91.3- 6.7 5.7---- 0.3------------
1956-10-18 12.6 15.0 8.6- 88.0- 7.3 5.0---- 3.0------------
1956-10-17 9.4 14.2 3.2- 72.3- 1.0 6.3---- 0.0------------
1956-10-16 7.2 12.1 2.6- 91.8- 6.0 2.3---- 0.0------------
1956-10-15 9.2 11.0 7.6- 81.8- 3.7 5.7---- 0.0------------
1956-10-14 10.1 10.8 7.0- 71.8- 4.7 15.0---- 0.0------------
1956-10-13 10.5 11.8 9.1- 84.5- 8.0 13.3---- 17.9------------
1956-10-12 10.9 12.0 9.5- 83.0- 7.3 10.0---- 0.0------------
1956-10-11 10.0 12.0 6.3- 90.5- 6.7 6.3---- 0.0------------
1956-10-10 7.2 11.0 0.1- 77.0- 5.0 5.3---- 0.0------------
1956-10-09 7.5 10.4 4.2- 78.5- 6.0 8.3---- 2.8------------
1956-10-08 6.8 9.9 4.7- 82.0- 6.3 5.0---- 0.1------------
1956-10-07 9.6 11.0 7.2- 78.3- 6.0 16.0---- 4.9------------
1956-10-06 8.8 9.8 4.7- 83.5- 8.0 2.7---- 19.7------------
1956-10-05 8.5 12.2 6.7- 88.8- 5.0 4.0---- 2.3------------
1956-10-04 11.9 15.8 6.5- 89.0- 5.3 6.3---- 1.3------------
1956-10-03 12.9 16.4 10.7- 90.8- 5.0 8.0---- 0.8------------
1956-10-02 15.4 22.3 10.5- 88.8- 4.7 5.7---- 23.0------------
1956-10-01 14.1 18.3 9.5- 88.5- 4.7 6.3---- 3.4------------
1956-09-30 13.1 18.7 10.4- 83.3- 1.7 8.7---- 0.0------------
1956-09-29 15.0 18.4 12.8- 77.5- 1.7 12.0---- 0.0------------
1956-09-28 16.1 18.0 14.3- 91.3- 7.0 9.3---- 1.6------------
1956-09-27 17.5 22.5 11.5- 71.3- 2.0 6.3---- 0.0------------
1956-09-26 17.2 22.8 9.4- 66.3- 0.0 6.3---- 0.0------------
1956-09-25 12.4 18.6 3.6- 64.3- 1.3 5.0---- 0.0------------
1956-09-24 10.1 15.3 2.7- 60.8- 1.3 5.3---- 0.0------------
1956-09-23 9.7 16.1 5.1- 70.3- 2.7 8.0---- 0.0------------
1956-09-22 12.5 16.1 8.1- 88.3- 3.3 4.3---- 0.0------------
1956-09-21 10.2 15.8 4.9- 87.0- 0.7 0.7---- 0.0------------
1956-09-20 10.7 16.4 8.2- 85.0- 3.7 1.0---- 0.0------------
1956-09-19 10.9 14.8 5.9- 81.0- 1.7 2.3---- 0.0------------
1956-09-18 10.6 14.6 8.0- 85.0- 3.7 3.7---- 0.0------------
1956-09-17 11.3 13.3 7.6- 78.3- 5.7 12.0---- 12.3------------
1956-09-16 11.9 14.9 6.6- 74.3- 6.7 11.7---- 7.2------------
1956-09-15 12.2 15.5 9.4- 81.5- 2.7 9.3---- 0.0------------
1956-09-14 10.4 14.8 4.5- 85.8- 1.3 2.7---- 0.3------------
1956-09-13 9.4 14.2 6.7- 87.3- 3.0 5.7---- 0.0------------
1956-09-12 12.2 15.5 9.3- 82.0- 4.3 10.3---- 2.2------------
1956-09-11 13.4 18.6 11.7- 89.3- 6.0 1.0---- 8.8------------
1198.4 ms

 

Źródłem pochodzenia danych jest Instytut Meteorologii i Gospodarki Wodnej – Państwowy Instytut Badawczy. Dane Instytutu Meteorologii i Gospodarki Wodnej – Państwowego Instytutu Badawczego zostały przetworzone.

Dane źródłowe można odnaleźć na stronie https://dane.imgw.pl